Time;durP1;ratioP1;P1;durP2;ratioP2;P2;SDS_P1;SDS_P2;PMS_P1;PMS_P2;Temp;Humidity;BMP_temperature;BMP_pressure;BME280_temperature;BME280_humidity;BME280_pressure;Samples;Min_cycle;Max_cycle;Signal;HPM_P1;HPM_P2
2023/05/31 00:00:12;;;;;;;0.30;0.30;;;16.50;89.00;;;;;;4391873;32;20156;-75
2023/05/31 00:02:37;;;;;;;0.20;0.20;;;16.30;89.70;;;;;;4390425;32;20601;-73
2023/05/31 00:05:03;;;;;;;0.30;0.30;;;16.00;90.40;;;;;;4391026;32;20075;-75
2023/05/31 00:07:28;;;;;;;0.45;0.45;;;15.90;90.70;;;;;;4390806;32;20439;-74
2023/05/31 00:09:54;;;;;;;0.50;0.50;;;15.90;90.90;;;;;;4390865;32;21156;-74
2023/05/31 00:12:19;;;;;;;0.20;0.20;;;16.00;90.70;;;;;;4392067;32;20152;-75
2023/05/31 00:14:46;;;;;;;0.20;0.20;;;15.90;90.70;;;;;;4389239;32;20066;-75
2023/05/31 00:17:12;;;;;;;0.40;0.40;;;15.90;90.70;;;;;;4391626;32;20091;-75
2023/05/31 00:19:38;;;;;;;0.52;0.40;;;15.90;90.70;;;;;;4389327;32;20151;-74
2023/05/31 00:22:04;;;;;;;0.65;0.57;;;16.00;90.70;;;;;;4391255;32;20094;-75
2023/05/31 00:24:29;;;;;;;0.40;0.40;;;16.10;90.70;;;;;;4389943;32;20070;-75
2023/05/31 00:26:55;;;;;;;1.35;0.55;;;16.10;91.00;;;;;;4391026;32;20058;-73
2023/05/31 00:29:21;;;;;;;0.30;0.30;;;16.00;90.80;;;;;;4389893;32;20073;-73
2023/05/31 00:31:46;;;;;;;0.45;0.45;;;15.90;90.90;;;;;;4389843;32;20066;-75
2023/05/31 00:34:12;;;;;;;3.00;0.60;;;15.90;91.00;;;;;;4390178;32;20074;-75
2023/05/31 00:36:37;;;;;;;0.47;0.47;;;15.70;91.40;;;;;;4389793;32;20086;-75
2023/05/31 00:39:03;;;;;;;0.28;0.28;;;15.60;92.00;;;;;;4391226;32;20129;-73
2023/05/31 00:41:28;;;;;;;0.20;0.20;;;15.40;92.00;;;;;;4390586;32;20070;-75
2023/05/31 00:43:54;;;;;;;0.30;0.30;;;15.50;91.80;;;;;;4391451;32;20424;-74
2023/05/31 00:46:28;;;;;;;0.45;0.40;;;15.50;91.80;;;;;;4389838;32;20245;-75
2023/05/31 00:48:55;;;;;;;0.30;0.30;;;15.50;91.90;;;;;;4390431;32;20074;-75
2023/05/31 00:51:21;;;;;;;0.10;0.10;;;15.40;92.00;;;;;;4389010;32;20124;-76
2023/05/31 00:53:47;;;;;;;0.30;0.30;;;15.30;92.20;;;;;;4388328;32;20598;-75
2023/05/31 00:56:13;;;;;;;0.20;0.20;;;15.30;92.40;;;;;;4392852;32;20082;-75
2023/05/31 00:58:41;;;;;;;0.52;0.52;;;15.30;92.30;;;;;;4390817;32;21242;-75
2023/05/31 01:01:08;;;;;;;0.25;0.25;;;15.30;92.20;;;;;;4395334;32;20160;-72
2023/05/31 01:03:34;;;;;;;3.83;0.62;;;15.30;92.50;;;;;;4393259;32;21247;-73
2023/05/31 01:06:00;;;;;;;0.20;0.20;;;15.20;92.50;;;;;;4392474;32;20058;-72
2023/05/31 01:08:26;;;;;;;0.40;0.40;;;15.20;92.90;;;;;;4392640;32;20057;-74
2023/05/31 01:10:55;;;;;;;1.08;0.73;;;15.10;93.00;;;;;;4393620;32;20081;-74
2023/05/31 01:13:45;;;;;;;0.30;0.30;;;15.10;93.20;;;;;;4391596;32;20107;-73
2023/05/31 01:16:22;;;;;;;0.28;0.28;;;15.00;93.20;;;;;;4383289;32;20102;-73
2023/05/31 01:18:54;;;;;;;0.40;0.40;;;14.90;93.60;;;;;;4393180;32;20795;-73
2023/05/31 01:21:26;;;;;;;1.60;1.00;;;14.90;93.60;;;;;;4393764;32;20976;-74
2023/05/31 01:24:30;;;;;;;0.50;0.50;;;14.80;93.60;;;;;;4391119;32;20710;-73
2023/05/31 01:27:00;;;;;;;0.30;0.30;;;14.70;93.80;;;;;;4382337;32;20161;-73
2023/05/31 01:29:27;;;;;;;0.30;0.30;;;14.70;94.00;;;;;;4393189;32;20081;-75
2023/05/31 01:31:54;;;;;;;0.60;0.60;;;14.70;94.10;;;;;;4392582;32;20197;-74
2023/05/31 01:34:20;;;;;;;0.57;0.52;;;14.70;94.20;;;;;;4392939;32;20062;-74
2023/05/31 01:36:45;;;;;;;0.30;0.30;;;14.60;94.50;;;;;;4392982;32;20126;-72
2023/05/31 01:39:12;;;;;;;1.05;0.95;;;14.50;94.90;;;;;;4392420;32;20400;-74
2023/05/31 01:41:40;;;;;;;0.30;0.30;;;14.50;94.80;;;;;;4393039;32;20556;-75
2023/05/31 01:44:07;;;;;;;0.40;0.40;;;14.50;94.90;;;;;;4394199;32;20066;-73
2023/05/31 01:46:32;;;;;;;0.32;0.32;;;14.40;95.10;;;;;;4392952;32;20071;-73
2023/05/31 01:48:59;;;;;;;0.80;0.80;;;14.30;95.60;;;;;;4392261;32;20074;-75
2023/05/31 01:51:26;;;;;;;1.90;0.60;;;14.30;95.90;;;;;;4392955;32;20132;-73
2023/05/31 01:53:52;;;;;;;0.20;0.20;;;14.20;95.80;;;;;;4390980;32;20062;-74
2023/05/31 01:56:20;;;;;;;0.70;0.70;;;14.10;96.10;;;;;;4393031;32;20078;-75
2023/05/31 01:58:48;;;;;;;0.30;0.30;;;14.00;96.40;;;;;;4391726;32;20085;-74
2023/05/31 02:01:16;;;;;;;0.30;0.30;;;14.00;96.50;;;;;;4391581;32;20074;-75
2023/05/31 02:03:42;;;;;;;0.90;0.73;;;14.00;96.50;;;;;;4392831;32;20081;-75
2023/05/31 02:06:07;;;;;;;0.30;0.30;;;14.00;96.60;;;;;;4396485;32;20081;-74
2023/05/31 02:08:33;;;;;;;0.20;0.20;;;14.00;96.90;;;;;;4392374;32;20066;-74
2023/05/31 02:10:59;;;;;;;0.20;0.20;;;13.80;97.00;;;;;;4391625;32;20101;-73
2023/05/31 02:13:26;;;;;;;0.20;0.20;;;13.80;97.40;;;;;;4394249;32;20118;-74
2023/05/31 02:15:52;;;;;;;1.05;0.90;;;13.80;97.60;;;;;;4393973;32;20412;-74
2023/05/31 02:18:17;;;;;;;0.20;0.20;;;13.90;97.40;;;;;;4394129;32;20054;-74
2023/05/31 02:20:43;;;;;;;0.40;0.40;;;14.00;97.20;;;;;;4393463;32;20583;-75
2023/05/31 02:23:09;;;;;;;0.20;0.20;;;14.00;97.00;;;;;;4393994;32;20057;-73
2023/05/31 02:25:35;;;;;;;1.48;0.70;;;14.00;97.30;;;;;;4393002;32;20082;-74
2023/05/31 02:28:00;;;;;;;0.30;0.30;;;14.00;97.60;;;;;;4392305;32;20105;-74
2023/05/31 02:30:27;;;;;;;0.30;0.30;;;14.00;97.10;;;;;;4393625;32;20597;-73
2023/05/31 02:32:53;;;;;;;0.20;0.20;;;13.90;97.00;;;;;;4394039;32;20062;-75
2023/05/31 02:35:19;;;;;;;0.30;0.30;;;13.80;97.20;;;;;;4394530;32;20085;-73
2023/05/31 02:37:45;;;;;;;5.78;0.30;;;13.80;97.10;;;;;;4391937;32;20078;-73
2023/05/31 02:40:11;;;;;;;0.30;0.30;;;13.90;96.70;;;;;;4393613;32;20093;-73
2023/05/31 02:42:40;;;;;;;0.30;0.30;;;13.80;96.90;;;;;;4392110;32;20098;-73
2023/05/31 02:45:07;;;;;;;0.60;0.30;;;13.80;97.10;;;;;;4392887;32;20380;-73
2023/05/31 02:47:33;;;;;;;0.70;0.55;;;13.80;97.30;;;;;;4392427;32;20118;-73
2023/05/31 02:49:58;;;;;;;0.30;0.30;;;13.80;97.80;;;;;;4391609;32;20545;-70
2023/05/31 02:52:26;;;;;;;0.52;0.52;;;13.80;97.10;;;;;;4393784;32;20089;-75
2023/05/31 02:54:51;;;;;;;0.40;0.40;;;13.70;97.30;;;;;;4392879;32;20186;-74
2023/05/31 02:57:17;;;;;;;0.20;0.20;;;13.60;97.40;;;;;;4392265;32;20062;-75
2023/05/31 02:59:46;;;;;;;0.30;0.30;;;13.60;97.50;;;;;;4391714;32;20419;-72
2023/05/31 03:02:11;;;;;;;0.30;0.30;;;13.60;97.60;;;;;;4393471;32;20557;-75
2023/05/31 03:04:37;;;;;;;0.40;0.40;;;13.60;97.70;;;;;;4393853;32;20078;-73
2023/05/31 03:07:03;;;;;;;1.05;0.77;;;13.70;97.70;;;;;;4393717;32;20062;-75
2023/05/31 03:09:29;;;;;;;0.30;0.30;;;13.60;97.90;;;;;;4394107;32;20107;-75
2023/05/31 03:11:55;;;;;;;0.77;0.68;;;13.40;98.50;;;;;;4391015;32;20062;-74
2023/05/31 03:14:20;;;;;;;0.50;0.50;;;13.40;98.60;;;;;;4391397;32;20074;-74
2023/05/31 03:16:46;;;;;;;0.57;0.57;;;13.50;98.60;;;;;;4393057;32;20529;-74
2023/05/31 03:19:13;;;;;;;0.30;0.30;;;13.30;99.00;;;;;;4392696;32;20086;-74
2023/05/31 03:21:38;;;;;;;2.17;0.90;;;13.30;99.40;;;;;;4391082;32;20166;-73
2023/05/31 03:24:04;;;;;;;0.40;0.40;;;13.20;99.90;;;;;;4393675;32;20066;-74
2023/05/31 03:26:30;;;;;;;0.25;0.25;;;13.10;99.90;;;;;;4392218;32;20553;-75
2023/05/31 03:28:56;;;;;;;0.20;0.20;;;13.20;99.90;;;;;;4392451;32;20644;-74
2023/05/31 03:31:21;;;;;;;0.32;0.32;;;13.20;99.90;;;;;;4391768;32;20477;-74
2023/05/31 03:33:47;;;;;;;0.85;0.45;;;13.30;99.90;;;;;;4392482;32;20062;-75
2023/05/31 03:36:12;;;;;;;0.50;0.50;;;13.40;99.90;;;;;;4391365;32;20537;-74
2023/05/31 03:38:38;;;;;;;1.35;0.50;;;13.40;99.90;;;;;;4391713;32;20086;-75
2023/05/31 03:41:03;;;;;;;0.30;0.30;;;13.20;99.90;;;;;;4392205;32;20086;-75
2023/05/31 03:43:29;;;;;;;1.25;0.62;;;13.30;99.90;;;;;;4393466;32;20538;-75
2023/05/31 03:46:00;;;;;;;0.30;0.30;;;13.40;99.90;;;;;;4391933;32;20085;-74
2023/05/31 03:48:26;;;;;;;;;;;13.10;99.90;;;;;;4391157;32;20086;-72
2023/05/31 03:50:52;;;;;;;0.65;0.52;;;13.10;99.90;;;;;;4389659;32;19949;-73
2023/05/31 03:53:17;;;;;;;1.02;0.52;;;13.10;99.90;;;;;;4391209;32;20117;-72
2023/05/31 03:55:43;;;;;;;0.65;0.57;;;13.10;99.90;;;;;;4392695;32;20050;-75
2023/05/31 03:58:08;;;;;;;0.40;0.40;;;13.10;99.90;;;;;;4392528;32;20075;-75
2023/05/31 04:00:34;;;;;;;0.20;0.20;;;13.00;99.90;;;;;;4392011;32;20058;-72
2023/05/31 04:03:00;;;;;;;0.30;0.30;;;13.20;99.90;;;;;;4391966;32;20125;-75
2023/05/31 04:05:25;;;;;;;0.40;0.40;;;13.30;99.90;;;;;;4391353;32;21507;-75
2023/05/31 04:07:51;;;;;;;4.12;0.50;;;13.40;99.90;;;;;;4390802;32;20102;-75
2023/05/31 04:10:16;;;;;;;0.60;0.40;;;13.50;99.90;;;;;;4390313;32;20113;-75
2023/05/31 04:12:42;;;;;;;0.95;0.55;;;13.50;99.90;;;;;;4391424;32;20141;-75
2023/05/31 04:15:08;;;;;;;0.30;0.30;;;13.60;99.90;;;;;;4392576;32;20071;-76
2023/05/31 04:17:33;;;;;;;0.50;0.50;;;13.70;99.90;;;;;;4392165;32;20431;-75
2023/05/31 04:19:58;;;;;;;0.30;0.30;;;13.80;99.90;;;;;;4390895;32;20078;-75
2023/05/31 04:22:24;;;;;;;0.30;0.30;;;13.90;99.90;;;;;;4385793;32;20125;-73
2023/05/31 04:24:50;;;;;;;1.02;0.90;;;13.90;99.90;;;;;;4390105;32;20084;-75
2023/05/31 04:27:18;;;;;;;0.32;0.32;;;14.00;99.90;;;;;;4391178;32;20116;-74
2023/05/31 04:29:45;;;;;;;0.50;0.50;;;14.00;99.70;;;;;;4391699;32;20092;-72
2023/05/31 04:32:14;;;;;;;0.30;0.30;;;14.10;99.70;;;;;;4392430;32;20074;-74
2023/05/31 04:34:41;;;;;;;1.23;0.82;;;14.20;99.30;;;;;;4393211;32;20083;-73
2023/05/31 04:37:07;;;;;;;0.40;0.40;;;14.20;99.30;;;;;;4395571;32;20163;-74
2023/05/31 04:39:33;;;;;;;0.43;0.37;;;14.30;99.20;;;;;;4394570;32;20085;-74
2023/05/31 04:41:59;;;;;;;0.30;0.30;;;14.30;98.90;;;;;;4395080;32;20455;-74
2023/05/31 04:44:26;;;;;;;0.40;0.40;;;14.20;98.80;;;;;;4393388;32;20087;-74
2023/05/31 04:46:51;;;;;;;3.00;0.50;;;14.30;99.10;;;;;;4394382;32;20066;-74
2023/05/31 04:49:18;;;;;;;0.40;0.40;;;14.40;98.90;;;;;;4394150;32;20372;-74
2023/05/31 04:51:44;;;;;;;0.30;0.30;;;14.40;98.60;;;;;;4394378;32;20604;-74
2023/05/31 04:54:09;;;;;;;0.20;0.20;;;14.20;98.50;;;;;;4393058;32;20082;-75
2023/05/31 04:56:35;;;;;;;2.45;0.62;;;14.30;98.50;;;;;;4395121;32;20435;-74
2023/05/31 04:59:00;;;;;;;0.50;0.50;;;14.40;97.80;;;;;;4393346;32;20073;-73
2023/05/31 05:01:26;;;;;;;0.30;0.30;;;14.50;97.90;;;;;;4390305;32;20073;-73
2023/05/31 05:03:52;;;;;;;0.20;0.20;;;14.50;97.70;;;;;;4391788;32;20094;-75
2023/05/31 05:06:18;;;;;;;2.30;0.40;;;14.50;97.70;;;;;;4390552;32;20147;-75
2023/05/31 05:08:44;;;;;;;0.30;0.30;;;14.60;97.30;;;;;;4393714;32;20172;-75
2023/05/31 05:11:10;;;;;;;1.05;0.95;;;14.70;97.50;;;;;;4391158;32;20518;-74
2023/05/31 05:13:36;;;;;;;0.30;0.30;;;14.80;96.90;;;;;;4397274;32;20427;-76
2023/05/31 05:16:02;;;;;;;0.40;0.40;;;14.90;97.10;;;;;;4399397;32;20099;-74
2023/05/31 05:18:28;;;;;;;0.25;0.25;;;15.00;96.70;;;;;;4386824;32;20085;-73
2023/05/31 05:20:53;;;;;;;0.30;0.30;;;15.00;96.80;;;;;;4397417;32;20755;-74
2023/05/31 05:23:19;;;;;;;0.35;0.35;;;15.00;97.00;;;;;;4392975;32;20109;-74
2023/05/31 05:25:46;;;;;;;0.30;0.30;;;15.00;97.30;;;;;;4393576;32;20568;-75
2023/05/31 05:28:11;;;;;;;0.43;0.35;;;15.10;96.80;;;;;;4380388;32;20152;-76
2023/05/31 05:30:38;;;;;;;0.40;0.40;;;15.10;96.50;;;;;;4382234;32;20086;-74
2023/05/31 05:33:04;;;;;;;0.40;0.40;;;15.10;96.80;;;;;;4379957;32;20168;-75
2023/05/31 05:35:33;;;;;;;0.85;0.85;;;15.10;96.70;;;;;;4391609;32;20621;-75
2023/05/31 05:37:59;;;;;;;0.20;0.20;;;15.20;96.50;;;;;;4389284;32;20085;-75
2023/05/31 05:40:27;;;;;;;0.88;0.50;;;15.30;96.20;;;;;;4386184;32;20785;-74
2023/05/31 05:42:55;;;;;;;0.30;0.30;;;15.40;96.80;;;;;;4390644;32;20101;-76
2023/05/31 05:45:21;;;;;;;1.15;1.05;;;15.50;96.70;;;;;;4385173;32;20094;-76
2023/05/31 05:47:48;;;;;;;0.30;0.30;;;15.60;95.80;;;;;;4379781;32;20057;-75
2023/05/31 05:50:14;;;;;;;0.37;0.37;;;15.70;95.60;;;;;;4391137;32;20085;-74
2023/05/31 05:52:40;;;;;;;0.50;0.50;;;15.80;95.70;;;;;;4389102;32;20580;-78
2023/05/31 05:55:06;;;;;;;11.98;1.40;;;16.00;95.50;;;;;;4390468;32;20595;-73
2023/05/31 05:57:32;;;;;;;2.83;0.73;;;16.00;95.50;;;;;;4391768;32;20133;-77
2023/05/31 05:59:57;;;;;;;0.70;0.40;;;16.00;95.40;;;;;;4389127;32;20150;-74
2023/05/31 06:02:23;;;;;;;1.08;0.60;;;16.10;95.20;;;;;;4390356;32;20070;-77
2023/05/31 06:04:49;;;;;;;5.07;0.43;;;16.20;95.30;;;;;;4391392;32;20581;-75
2023/05/31 06:07:16;;;;;;;0.43;0.43;;;16.30;95.20;;;;;;4393293;32;20069;-77
2023/05/31 06:09:42;;;;;;;1.10;0.80;;;16.30;95.30;;;;;;4388671;32;20097;-75
2023/05/31 06:12:09;;;;;;;0.40;0.40;;;16.40;94.70;;;;;;4392944;32;20094;-75
2023/05/31 06:14:34;;;;;;;0.82;0.60;;;16.40;94.80;;;;;;4383610;32;20087;-74
2023/05/31 06:17:00;;;;;;;1.02;0.90;;;16.60;94.90;;;;;;4393110;32;20078;-75
2023/05/31 06:19:25;;;;;;;0.50;0.50;;;16.70;94.00;;;;;;4394901;32;20090;-75
2023/05/31 06:21:53;;;;;;;0.30;0.30;;;16.70;94.10;;;;;;4391171;32;20097;-73
2023/05/31 06:24:19;;;;;;;0.95;0.50;;;16.80;94.20;;;;;;4388830;32;20090;-75
2023/05/31 06:26:44;;;;;;;0.40;0.40;;;16.90;94.00;;;;;;4388510;32;20079;-74
2023/05/31 06:29:10;;;;;;;0.45;0.45;;;16.90;94.00;;;;;;4391936;32;20200;-75
2023/05/31 06:31:35;;;;;;;0.50;0.50;;;17.00;93.90;;;;;;4393440;32;20504;-74
2023/05/31 06:34:01;;;;;;;0.20;0.20;;;17.10;93.90;;;;;;4392287;32;20156;-76
2023/05/31 06:36:26;;;;;;;0.22;0.22;;;17.10;93.40;;;;;;4392572;32;20141;-76
2023/05/31 06:38:52;;;;;;;1.12;0.62;;;17.20;93.30;;;;;;4391467;32;20077;-75
2023/05/31 06:41:17;;;;;;;2.80;0.90;;;17.20;93.20;;;;;;4392225;32;20076;-75
2023/05/31 06:43:43;;;;;;;4.78;1.17;;;17.30;92.90;;;;;;4388057;32;20506;-76
2023/05/31 06:46:11;;;;;;;0.30;0.30;;;17.20;93.00;;;;;;4387513;32;20093;-76
2023/05/31 06:48:37;;;;;;;0.80;0.62;;;17.30;93.20;;;;;;4392304;32;20077;-76
2023/05/31 06:51:02;;;;;;;0.30;0.30;;;17.40;93.60;;;;;;4387350;32;20091;-77
2023/05/31 06:53:28;;;;;;;0.55;0.50;;;17.50;93.30;;;;;;4386693;32;20141;-76
2023/05/31 06:55:53;;;;;;;0.30;0.30;;;17.60;93.50;;;;;;4390209;32;20136;-76
2023/05/31 06:58:19;;;;;;;0.40;0.40;;;17.80;93.40;;;;;;4393955;32;20303;-75
2023/05/31 07:00:45;;;;;;;0.80;0.57;;;17.80;92.60;;;;;;4392262;32;20091;-75
2023/05/31 07:03:10;;;;;;;0.60;0.60;;;17.90;92.60;;;;;;4392977;32;20094;-76
2023/05/31 07:05:36;;;;;;;0.20;0.20;;;18.10;92.60;;;;;;4387668;32;20089;-76
2023/05/31 07:08:01;;;;;;;0.30;0.30;;;18.20;91.80;;;;;;4391967;32;20090;-74
2023/05/31 07:10:27;;;;;;;1.87;0.82;;;18.30;91.70;;;;;;4389094;32;20075;-77
2023/05/31 07:12:53;;;;;;;0.30;0.30;;;18.40;90.60;;;;;;4397570;32;20121;-77
2023/05/31 07:15:19;;;;;;;1.25;0.50;;;18.40;90.60;;;;;;4396129;32;20637;-77
2023/05/31 07:17:45;;;;;;;0.70;0.50;;;18.50;90.80;;;;;;4391598;32;20125;-77
2023/05/31 07:20:11;;;;;;;0.75;0.43;;;18.70;90.80;;;;;;4396389;32;20527;-78
2023/05/31 07:22:37;;;;;;;0.28;0.28;;;18.80;90.20;;;;;;4399466;32;20095;-78
2023/05/31 07:25:03;;;;;;;4.03;0.50;;;18.90;90.40;;;;;;4408373;27;20078;-64
2023/05/31 07:27:29;;;;;;;0.70;0.40;;;19.00;90.40;;;;;;4387686;32;20406;-63
2023/05/31 07:29:55;;;;;;;0.43;0.43;;;19.10;90.20;;;;;;4392736;32;20074;-64
2023/05/31 07:32:20;;;;;;;0.37;0.37;;;19.20;89.10;;;;;;4394112;32;20119;-64
2023/05/31 07:34:46;;;;;;;1.12;0.93;;;19.20;87.70;;;;;;4390061;32;20082;-66
2023/05/31 07:37:11;;;;;;;1.08;0.55;;;19.20;88.40;;;;;;4389444;32;20090;-68
2023/05/31 07:39:37;;;;;;;0.65;0.50;;;19.30;88.40;;;;;;4394926;32;20081;-67
2023/05/31 07:42:03;;;;;;;0.43;0.43;;;19.50;88.50;;;;;;4392413;32;20168;-69
2023/05/31 07:44:29;;;;;;;0.20;0.20;;;19.70;88.10;;;;;;4394500;32;20065;-68
2023/05/31 07:46:54;;;;;;;0.50;0.50;;;19.70;85.60;;;;;;4394044;32;20615;-68
2023/05/31 07:49:20;;;;;;;0.30;0.30;;;20.00;86.20;;;;;;4392847;32;20107;-66
2023/05/31 07:51:45;;;;;;;16.10;1.02;;;20.00;84.80;;;;;;4390577;32;20574;-68
2023/05/31 07:54:11;;;;;;;5.15;1.42;;;20.30;85.00;;;;;;4396679;32;20096;-68
2023/05/31 07:56:36;;;;;;;0.30;0.30;;;20.50;83.80;;;;;;4391432;32;20121;-68
2023/05/31 07:59:02;;;;;;;1.65;0.30;;;20.30;83.50;;;;;;4397759;32;20157;-67
2023/05/31 08:01:28;;;;;;;0.40;0.40;;;20.30;83.10;;;;;;4388967;32;20094;-67
2023/05/31 08:03:54;;;;;;;0.50;0.40;;;20.30;83.30;;;;;;4394339;32;20073;-67
2023/05/31 08:06:20;;;;;;;0.52;0.40;;;20.40;82.90;;;;;;4392041;32;20167;-67
2023/05/31 08:08:46;;;;;;;0.20;0.20;;;20.40;81.40;;;;;;4394184;32;20086;-67
2023/05/31 08:11:11;;;;;;;0.88;0.60;;;20.50;82.90;;;;;;4396425;32;20093;-66
2023/05/31 08:13:38;;;;;;;0.30;0.20;;;20.60;83.30;;;;;;4398434;32;20109;-67
2023/05/31 08:16:04;;;;;;;0.30;0.30;;;20.70;82.40;;;;;;4389809;32;20093;-67
2023/05/31 08:18:30;;;;;;;0.20;0.20;;;20.80;81.80;;;;;;4398616;32;20088;-65
2023/05/31 08:20:55;;;;;;;1.65;0.65;;;20.90;81.10;;;;;;4395659;32;20110;-68
2023/05/31 08:23:21;;;;;;;0.32;0.32;;;20.90;82.20;;;;;;4389550;32;20139;-68
2023/05/31 08:25:47;;;;;;;1.30;0.95;;;20.80;81.90;;;;;;4397757;32;20908;-68
2023/05/31 08:28:13;;;;;;;0.30;0.30;;;21.00;81.30;;;;;;4398054;32;20119;-69
2023/05/31 08:30:38;;;;;;;0.30;0.30;;;21.10;80.30;;;;;;4400620;32;20086;-67
2023/05/31 08:33:04;;;;;;;0.20;0.20;;;21.20;80.00;;;;;;4393730;32;20089;-69
2023/05/31 08:35:30;;;;;;;0.20;0.20;;;21.00;79.50;;;;;;4400658;32;20081;-67
2023/05/31 08:37:55;;;;;;;2.03;0.50;;;21.00;79.50;;;;;;4396623;32;20085;-69
2023/05/31 08:40:22;;;;;;;0.20;0.20;;;21.10;77.80;;;;;;4401329;32;20070;-69
2023/05/31 08:42:54;;;;;;;0.20;0.20;;;21.20;75.70;;;;;;4403609;32;20066;-71
2023/05/31 08:45:20;;;;;;;0.30;0.30;;;21.30;76.90;;;;;;4405521;32;21301;-69
2023/05/31 08:47:56;;;;;;;0.40;0.40;;;21.30;76.30;;;;;;4399676;32;20082;-69
2023/05/31 08:50:22;;;;;;;1.65;0.95;;;21.20;75.90;;;;;;4401837;32;20619;-70
2023/05/31 08:52:49;;;;;;;0.30;0.30;;;21.20;73.60;;;;;;4396703;32;20082;-67
2023/05/31 08:55:15;;;;;;;0.37;0.37;;;21.20;74.60;;;;;;4399611;32;20081;-66
2023/05/31 08:57:41;;;;;;;0.32;0.32;;;21.40;74.40;;;;;;4402660;32;20081;-64
2023/05/31 09:00:10;;;;;;;0.30;0.30;;;21.60;73.30;;;;;;4400875;32;20559;-69
2023/05/31 09:02:37;;;;;;;0.20;0.20;;;21.40;73.40;;;;;;4402467;32;20656;-70
2023/05/31 09:05:03;;;;;;;0.60;0.60;;;21.50;75.10;;;;;;4394399;32;20101;-68
2023/05/31 09:07:28;;;;;;;1.02;0.75;;;21.60;75.60;;;;;;4401881;32;20585;-65
2023/05/31 09:09:54;;;;;;;0.20;0.20;;;21.70;74.20;;;;;;4399077;32;20105;-68
2023/05/31 09:12:19;;;;;;;0.40;0.40;;;21.70;74.30;;;;;;4402657;32;20152;-68
2023/05/31 09:14:46;;;;;;;0.40;0.40;;;21.80;74.80;;;;;;4399500;32;20105;-67
2023/05/31 09:17:12;;;;;;;0.30;0.30;;;21.80;74.90;;;;;;4399475;32;20101;-68
2023/05/31 09:19:41;;;;;;;0.30;0.30;;;21.90;75.30;;;;;;4401583;32;20094;-67
2023/05/31 09:22:06;;;;;;;0.22;0.22;;;22.10;76.70;;;;;;4400861;32;20998;-66
2023/05/31 09:24:32;;;;;;;0.45;0.40;;;22.30;75.10;;;;;;4403337;32;20324;-67
2023/05/31 09:27:00;;;;;;;0.28;0.28;;;22.40;74.80;;;;;;4407123;32;20114;-64
2023/05/31 09:29:26;;;;;;;0.25;0.25;;;22.50;74.30;;;;;;4406987;32;20418;-62
2023/05/31 09:32:08;;;;;;;1.90;0.50;;;22.70;74.30;;;;;;4414835;32;20521;-64
2023/05/31 09:34:33;;;;;;;2.17;1.20;;;22.90;74.50;;;;;;4407915;32;20101;-63
2023/05/31 09:36:59;;;;;;;0.30;0.30;;;23.20;73.40;;;;;;4407911;32;20070;-65
2023/05/31 09:39:25;;;;;;;0.20;0.20;;;23.00;72.20;;;;;;4416084;32;20107;-62
2023/05/31 09:41:51;;;;;;;0.22;0.22;;;23.10;72.90;;;;;;4413489;32;20446;-62
2023/05/31 09:44:17;;;;;;;16.55;0.70;;;23.10;72.10;;;;;;4414603;32;20092;-64
2023/05/31 09:46:45;;;;;;;0.47;0.47;;;23.20;72.10;;;;;;4412627;32;20102;-63
2023/05/31 09:49:10;;;;;;;0.20;0.20;;;23.10;70.90;;;;;;4414405;32;20284;-64
2023/05/31 09:51:36;;;;;;;0.20;0.20;;;23.00;71.50;;;;;;4407992;32;20118;-65
2023/05/31 09:54:10;;;;;;;1.33;0.93;;;23.00;71.30;;;;;;4409948;32;20065;-65
2023/05/31 09:56:38;;;;;;;0.43;0.43;;;23.10;72.70;;;;;;4410046;32;20648;-65
2023/05/31 09:59:04;;;;;;;0.20;0.20;;;23.50;71.10;;;;;;4412163;32;20102;-65
2023/05/31 10:01:31;;;;;;;0.50;0.50;;;23.60;69.40;;;;;;4408355;32;20057;-64
2023/05/31 10:03:59;;;;;;;14.80;1.27;;;23.90;70.40;;;;;;4410871;32;20125;-65
2023/05/31 10:06:24;;;;;;;0.40;0.40;;;23.70;69.50;;;;;;4409426;32;20134;-66
2023/05/31 10:08:51;;;;;;;0.20;0.20;;;23.70;69.10;;;;;;4407736;32;20456;-66
2023/05/31 10:11:21;;;;;;;0.40;0.40;;;23.70;68.90;;;;;;4405167;32;20156;-64
2023/05/31 10:13:52;;;;;;;0.20;0.20;;;23.80;69.30;;;;;;4413566;32;20070;-66
2023/05/31 10:16:19;;;;;;;0.20;0.20;;;24.20;69.80;;;;;;4410159;32;20094;-66
2023/05/31 10:18:48;;;;;;;0.28;0.28;;;24.30;68.10;;;;;;4410517;32;20145;-65
2023/05/31 10:21:22;;;;;;;0.25;0.25;;;24.40;67.20;;;;;;4410505;32;20082;-65
2023/05/31 10:23:56;;;;;;;0.22;0.22;;;24.60;67.80;;;;;;4402392;32;20074;-66
2023/05/31 10:26:25;;;;;;;2.00;0.75;;;24.80;67.30;;;;;;4413765;32;20568;-66
2023/05/31 10:28:58;;;;;;;0.20;0.20;;;24.80;67.90;;;;;;4408608;32;20126;-66
2023/05/31 10:31:43;;;;;;;0.30;0.30;;;24.80;66.00;;;;;;4415396;32;20046;-66
2023/05/31 10:34:25;;;;;;;0.28;0.28;;;24.80;64.60;;;;;;4415123;32;20082;-66
2023/05/31 10:36:53;;;;;;;0.20;0.20;;;24.80;64.10;;;;;;4414721;32;20082;-65
2023/05/31 10:39:29;;;;;;;0.20;0.20;;;25.10;65.30;;;;;;4413430;32;20085;-65
2023/05/31 10:44:52;;;;;;;0.20;0.20;;;25.40;63.70;;;;;;4348665;32;20515;-75
2023/05/31 10:47:33;;;;;;;0.30;0.30;;;25.40;62.20;;;;;;4353692;32;20094;-75
2023/05/31 10:50:01;;;;;;;0.20;0.20;;;25.20;65.20;;;;;;4354352;32;20550;-75
2023/05/31 10:52:30;;;;;;;0.20;0.20;;;25.40;64.10;;;;;;4349575;32;20165;-75
2023/05/31 10:55:17;;;;;;;0.30;0.30;;;25.40;62.90;;;;;;4342550;32;20130;-75
2023/05/31 10:57:43;;;;;;;0.20;0.20;;;25.10;63.50;;;;;;4354817;32;20570;-73
2023/05/31 11:00:11;;;;;;;0.20;0.20;;;25.20;64.90;;;;;;4353640;32;20595;-74
2023/05/31 11:02:45;;;;;;;0.20;0.20;;;25.10;62.00;;;;;;4347922;32;20095;-75
2023/05/31 11:05:27;;;;;;;0.40;0.40;;;24.90;63.20;;;;;;4349288;32;20484;-73
2023/05/31 11:07:54;;;;;;;0.22;0.22;;;25.00;61.20;;;;;;4353578;32;20176;-79
2023/05/31 11:10:29;;;;;;;11.98;1.48;;;25.20;61.00;;;;;;4350580;32;20071;-75
2023/05/31 11:12:57;;;;;;;0.10;0.10;;;25.60;62.60;;;;;;4363719;32;20167;-78
2023/05/31 11:15:37;;;;;;;0.20;0.20;;;26.20;60.40;;;;;;4356958;32;20121;-77
2023/05/31 11:18:08;;;;;;;0.35;0.30;;;26.40;58.70;;;;;;4354898;32;20094;-76
2023/05/31 11:20:36;;;;;;;0.10;0.10;;;26.20;60.20;;;;;;4352025;32;20170;-75
2023/05/31 11:23:20;;;;;;;0.28;0.28;;;26.10;58.90;;;;;;4353619;32;20095;-74
2023/05/31 11:26:20;;;;;;;0.20;0.20;;;25.90;59.10;;;;;;4353002;32;20114;-74
2023/05/31 11:28:56;;;;;;;0.50;0.50;;;25.90;59.20;;;;;;4352728;32;20082;-76
2023/05/31 11:31:59;;;;;;;0.20;0.20;;;26.20;60.00;;;;;;4353970;32;20173;-75
2023/05/31 11:34:28;;;;;;;0.10;0.10;;;26.60;58.50;;;;;;4335638;32;20515;-76
2023/05/31 11:36:57;;;;;;;0.13;0.13;;;26.70;57.40;;;;;;4354914;32;20469;-76
2023/05/31 11:39:22;;;;;;;0.10;0.10;;;26.70;58.00;;;;;;4349648;32;20093;-74
2023/05/31 11:41:48;;;;;;;0.00;0.00;;;26.80;57.20;;;;;;4353830;32;20348;-74
2023/05/31 11:44:19;;;;;;;0.77;0.55;;;26.60;58.20;;;;;;4348400;32;20102;-75
2023/05/31 11:46:46;;;;;;;0.20;0.20;;;26.70;56.90;;;;;;4351378;32;103052;-74
2023/05/31 11:49:13;;;;;;;0.10;0.10;;;26.60;58.30;;;;;;4347105;32;20086;-77
2023/05/31 11:51:43;;;;;;;0.10;0.10;;;27.00;56.80;;;;;;4345711;32;20956;-74
2023/05/31 11:54:11;;;;;;;0.20;0.20;;;27.70;57.30;;;;;;4347514;32;20140;-75
2023/05/31 11:56:37;;;;;;;0.00;0.00;;;28.40;56.60;;;;;;4350098;32;20063;-74
2023/05/31 11:59:03;;;;;;;0.25;0.25;;;28.60;54.80;;;;;;4349852;32;20340;-76
2023/05/31 12:01:35;;;;;;;0.00;0.00;;;28.70;54.50;;;;;;4346227;32;20535;-74
2023/05/31 12:04:01;;;;;;;1.17;0.65;;;28.60;54.10;;;;;;4347626;32;20707;-74
2023/05/31 12:06:28;;;;;;;0.00;0.00;;;28.20;53.40;;;;;;4347124;32;20075;-73
2023/05/31 12:08:54;;;;;;;0.30;0.20;;;27.80;54.10;;;;;;4352312;32;20595;-75
2023/05/31 12:11:20;;;;;;;1.37;0.62;;;27.80;55.00;;;;;;4349608;32;20115;-73
2023/05/31 12:13:46;;;;;;;0.13;0.13;;;27.70;55.70;;;;;;4350580;32;20083;-73
2023/05/31 12:16:12;;;;;;;0.20;0.20;;;27.50;54.10;;;;;;4349210;32;20131;-73
2023/05/31 12:18:38;;;;;;;0.00;0.00;;;27.30;56.50;;;;;;4350159;32;20243;-73
2023/05/31 12:21:06;;;;;;;0.00;0.00;;;27.10;56.40;;;;;;4350834;32;20086;-73
2023/05/31 12:23:31;;;;;;;0.10;0.10;;;27.70;55.60;;;;;;4351777;32;20071;-73
2023/05/31 12:25:58;;;;;;;0.10;0.10;;;28.00;54.50;;;;;;4350934;32;21729;-73
2023/05/31 12:28:24;;;;;;;0.00;0.00;;;28.30;53.10;;;;;;4350609;32;20099;-73
2023/05/31 12:30:51;;;;;;;0.00;0.00;;;28.90;53.10;;;;;;4347705;32;20086;-74
2023/05/31 12:33:17;;;;;;;0.05;0.05;;;29.10;52.00;;;;;;4351751;32;20119;-73
2023/05/31 12:35:44;;;;;;;0.00;0.00;;;28.80;52.10;;;;;;4349689;32;20205;-73
2023/05/31 12:38:10;;;;;;;0.00;0.00;;;28.60;51.90;;;;;;4350380;32;20468;-72
2023/05/31 12:40:37;;;;;;;0.00;0.00;;;28.90;52.00;;;;;;4349848;32;20063;-73
2023/05/31 12:43:04;;;;;;;0.00;0.00;;;29.00;50.80;;;;;;4352589;32;20099;-73
2023/05/31 12:45:30;;;;;;;0.00;0.00;;;29.30;51.10;;;;;;4351160;32;20838;-73
2023/05/31 12:47:57;;;;;;;0.10;0.10;;;29.70;50.50;;;;;;4350412;32;20074;-74
2023/05/31 12:50:27;;;;;;;0.00;0.00;;;29.70;50.20;;;;;;4345922;32;20510;-74